sensor_id;sensor_type;location;lat;lon;timestamp;P1;durP1;ratioP1;P2;durP2;ratioP2
1811;SDS011;904;47.814;11.134;2023-02-12T00:01:52;12.90;;;8.98;;
1811;SDS011;904;47.814;11.134;2023-02-12T00:04:22;17.80;;;8.07;;
1811;SDS011;904;47.814;11.134;2023-02-12T00:06:50;13.75;;;8.40;;
1811;SDS011;904;47.814;11.134;2023-02-12T00:09:17;14.38;;;9.07;;
1811;SDS011;904;47.814;11.134;2023-02-12T00:11:47;21.05;;;9.27;;
1811;SDS011;904;47.814;11.134;2023-02-12T00:14:14;13.52;;;8.77;;
1811;SDS011;904;47.814;11.134;2023-02-12T00:16:44;13.52;;;9.63;;
1811;SDS011;904;47.814;11.134;2023-02-12T00:19:13;14.55;;;9.60;;
1811;SDS011;904;47.814;11.134;2023-02-12T00:21:40;14.50;;;8.80;;
1811;SDS011;904;47.814;11.134;2023-02-12T00:24:17;12.65;;;9.02;;
1811;SDS011;904;47.814;11.134;2023-02-12T00:26:47;16.27;;;8.65;;
1811;SDS011;904;47.814;11.134;2023-02-12T00:29:17;12.25;;;8.65;;
1811;SDS011;904;47.814;11.134;2023-02-12T00:31:49;11.73;;;8.10;;
1811;SDS011;904;47.814;11.134;2023-02-12T00:34:22;12.65;;;8.23;;
1811;SDS011;904;47.814;11.134;2023-02-12T00:36:52;11.75;;;7.72;;
1811;SDS011;904;47.814;11.134;2023-02-12T00:39:22;12.18;;;9.07;;
1811;SDS011;904;47.814;11.134;2023-02-12T00:41:49;16.30;;;8.80;;
1811;SDS011;904;47.814;11.134;2023-02-12T00:44:19;14.48;;;9.60;;
1811;SDS011;904;47.814;11.134;2023-02-12T00:46:48;15.07;;;8.02;;
1811;SDS011;904;47.814;11.134;2023-02-12T00:49:17;11.20;;;8.23;;
1811;SDS011;904;47.814;11.134;2023-02-12T00:51:47;14.90;;;9.05;;
1811;SDS011;904;47.814;11.134;2023-02-12T00:54:14;15.35;;;8.40;;
1811;SDS011;904;47.814;11.134;2023-02-12T00:56:44;10.00;;;6.75;;
1811;SDS011;904;47.814;11.134;2023-02-12T00:59:12;11.50;;;7.90;;
1811;SDS011;904;47.814;11.134;2023-02-12T01:01:40;16.27;;;7.85;;
1811;SDS011;904;47.814;11.134;2023-02-12T01:04:08;9.50;;;7.47;;
1811;SDS011;904;47.814;11.134;2023-02-12T01:06:35;11.95;;;8.13;;
1811;SDS011;904;47.814;11.134;2023-02-12T01:09:07;15.02;;;9.10;;
1811;SDS011;904;47.814;11.134;2023-02-12T01:11:34;15.02;;;9.30;;
1811;SDS011;904;47.814;11.134;2023-02-12T01:14:02;10.32;;;7.47;;
1811;SDS011;904;47.814;11.134;2023-02-12T01:16:35;14.38;;;9.35;;
1811;SDS011;904;47.814;11.134;2023-02-12T01:19:03;16.02;;;8.43;;
1811;SDS011;904;47.814;11.134;2023-02-12T01:21:37;14.40;;;10.15;;
1811;SDS011;904;47.814;11.134;2023-02-12T01:24:12;13.40;;;9.88;;
1811;SDS011;904;47.814;11.134;2023-02-12T01:26:40;16.83;;;10.55;;
1811;SDS011;904;47.814;11.134;2023-02-12T01:29:10;13.20;;;9.18;;
1811;SDS011;904;47.814;11.134;2023-02-12T01:31:39;16.45;;;10.15;;
1811;SDS011;904;47.814;11.134;2023-02-12T01:34:06;20.73;;;10.30;;
1811;SDS011;904;47.814;11.134;2023-02-12T01:36:41;19.67;;;12.85;;
1811;SDS011;904;47.814;11.134;2023-02-12T01:39:14;16.75;;;11.68;;
1811;SDS011;904;47.814;11.134;2023-02-12T01:41:42;15.63;;;10.13;;
1811;SDS011;904;47.814;11.134;2023-02-12T01:44:12;11.75;;;7.82;;
1811;SDS011;904;47.814;11.134;2023-02-12T01:46:42;10.95;;;7.32;;
1811;SDS011;904;47.814;11.134;2023-02-12T01:49:11;12.07;;;8.15;;
1811;SDS011;904;47.814;11.134;2023-02-12T01:51:44;11.02;;;7.90;;
1811;SDS011;904;47.814;11.134;2023-02-12T01:54:15;15.93;;;9.77;;
1811;SDS011;904;47.814;11.134;2023-02-12T01:56:50;18.17;;;12.02;;
1811;SDS011;904;47.814;11.134;2023-02-12T01:59:17;23.98;;;11.40;;
1811;SDS011;904;47.814;11.134;2023-02-12T02:01:54;15.55;;;10.10;;
1811;SDS011;904;47.814;11.134;2023-02-12T02:04:23;18.83;;;11.70;;
1811;SDS011;904;47.814;11.134;2023-02-12T02:06:55;19.23;;;11.18;;
1811;SDS011;904;47.814;11.134;2023-02-12T02:09:26;20.15;;;11.65;;
1811;SDS011;904;47.814;11.134;2023-02-12T02:11:55;14.55;;;10.48;;
1811;SDS011;904;47.814;11.134;2023-02-12T02:14:50;19.33;;;12.55;;
1811;SDS011;904;47.814;11.134;2023-02-12T02:17:23;18.15;;;10.07;;
1811;SDS011;904;47.814;11.134;2023-02-12T02:20:09;12.88;;;8.20;;
1811;SDS011;904;47.814;11.134;2023-02-12T02:22:58;13.63;;;8.65;;
1811;SDS011;904;47.814;11.134;2023-02-12T02:25:59;12.50;;;9.15;;
1811;SDS011;904;47.814;11.134;2023-02-12T02:31:41;18.15;;;9.95;;
1811;SDS011;904;47.814;11.134;2023-02-12T02:34:16;17.73;;;10.30;;
1811;SDS011;904;47.814;11.134;2023-02-12T02:36:52;14.60;;;9.38;;
1811;SDS011;904;47.814;11.134;2023-02-12T02:39:31;19.65;;;11.48;;
1811;SDS011;904;47.814;11.134;2023-02-12T02:42:07;16.60;;;10.68;;
1811;SDS011;904;47.814;11.134;2023-02-12T02:44:40;15.13;;;9.18;;
1811;SDS011;904;47.814;11.134;2023-02-12T02:47:13;11.68;;;8.20;;
1811;SDS011;904;47.814;11.134;2023-02-12T02:49:43;10.02;;;8.15;;
1811;SDS011;904;47.814;11.134;2023-02-12T02:52:15;12.32;;;7.55;;
1811;SDS011;904;47.814;11.134;2023-02-12T02:54:47;10.88;;;7.40;;
1811;SDS011;904;47.814;11.134;2023-02-12T02:57:19;13.55;;;7.97;;
1811;SDS011;904;47.814;11.134;2023-02-12T02:59:58;13.82;;;8.95;;
1811;SDS011;904;47.814;11.134;2023-02-12T03:02:32;14.27;;;8.68;;
1811;SDS011;904;47.814;11.134;2023-02-12T03:05:03;19.20;;;8.25;;
1811;SDS011;904;47.814;11.134;2023-02-12T03:07:36;14.10;;;7.47;;
1811;SDS011;904;47.814;11.134;2023-02-12T03:10:09;12.13;;;8.48;;
1811;SDS011;904;47.814;11.134;2023-02-12T03:12:43;11.63;;;8.20;;
1811;SDS011;904;47.814;11.134;2023-02-12T03:15:17;10.98;;;8.25;;
1811;SDS011;904;47.814;11.134;2023-02-12T03:17:51;12.80;;;8.15;;
1811;SDS011;904;47.814;11.134;2023-02-12T03:20:23;10.30;;;7.18;;
1811;SDS011;904;47.814;11.134;2023-02-12T03:22:54;11.82;;;7.15;;
1811;SDS011;904;47.814;11.134;2023-02-12T03:25:30;11.27;;;8.23;;
1811;SDS011;904;47.814;11.134;2023-02-12T03:28:02;9.18;;;6.40;;
1811;SDS011;904;47.814;11.134;2023-02-12T03:30:35;13.10;;;7.78;;
1811;SDS011;904;47.814;11.134;2023-02-12T03:33:11;9.82;;;7.60;;
1811;SDS011;904;47.814;11.134;2023-02-12T03:35:47;13.15;;;9.63;;
1811;SDS011;904;47.814;11.134;2023-02-12T03:38:29;12.75;;;6.88;;
1811;SDS011;904;47.814;11.134;2023-02-12T03:41:08;10.88;;;7.72;;
1811;SDS011;904;47.814;11.134;2023-02-12T03:43:46;10.65;;;7.60;;
1811;SDS011;904;47.814;11.134;2023-02-12T03:46:21;14.50;;;7.97;;
1811;SDS011;904;47.814;11.134;2023-02-12T03:48:56;12.57;;;7.68;;
1811;SDS011;904;47.814;11.134;2023-02-12T03:51:28;10.65;;;6.32;;
1811;SDS011;904;47.814;11.134;2023-02-12T03:54:05;9.40;;;6.10;;
1811;SDS011;904;47.814;11.134;2023-02-12T03:56:39;12.13;;;7.43;;
1811;SDS011;904;47.814;11.134;2023-02-12T04:01:58;13.57;;;7.45;;
1811;SDS011;904;47.814;11.134;2023-02-12T04:04:27;9.57;;;7.03;;
1811;SDS011;904;47.814;11.134;2023-02-12T04:06:57;8.65;;;6.38;;
1811;SDS011;904;47.814;11.134;2023-02-12T04:09:26;11.15;;;7.13;;
1811;SDS011;904;47.814;11.134;2023-02-12T04:12:05;9.68;;;6.75;;
1811;SDS011;904;47.814;11.134;2023-02-12T04:14:53;10.18;;;7.10;;
1811;SDS011;904;47.814;11.134;2023-02-12T04:17:31;11.70;;;7.28;;
1811;SDS011;904;47.814;11.134;2023-02-12T04:20:09;10.98;;;7.35;;
1811;SDS011;904;47.814;11.134;2023-02-12T04:22:45;17.02;;;6.90;;
1811;SDS011;904;47.814;11.134;2023-02-12T04:25:21;9.70;;;6.57;;
1811;SDS011;904;47.814;11.134;2023-02-12T04:28:04;10.15;;;6.85;;
1811;SDS011;904;47.814;11.134;2023-02-12T04:30:39;12.57;;;7.85;;
1811;SDS011;904;47.814;11.134;2023-02-12T04:33:14;13.25;;;7.70;;
1811;SDS011;904;47.814;11.134;2023-02-12T04:35:48;8.82;;;7.20;;
1811;SDS011;904;47.814;11.134;2023-02-12T04:38:22;11.05;;;6.93;;
1811;SDS011;904;47.814;11.134;2023-02-12T04:40:55;11.57;;;8.00;;
1811;SDS011;904;47.814;11.134;2023-02-12T04:43:27;13.52;;;7.78;;
1811;SDS011;904;47.814;11.134;2023-02-12T04:45:55;14.52;;;7.47;;
1811;SDS011;904;47.814;11.134;2023-02-12T04:48:24;13.73;;;8.07;;
1811;SDS011;904;47.814;11.134;2023-02-12T04:50:53;9.05;;;6.65;;
1811;SDS011;904;47.814;11.134;2023-02-12T04:53:21;11.15;;;6.78;;
1811;SDS011;904;47.814;11.134;2023-02-12T04:55:48;12.65;;;6.97;;
1811;SDS011;904;47.814;11.134;2023-02-12T04:58:19;12.10;;;8.23;;
1811;SDS011;904;47.814;11.134;2023-02-12T05:00:47;9.75;;;6.97;;
1811;SDS011;904;47.814;11.134;2023-02-12T05:03:17;13.43;;;7.20;;
1811;SDS011;904;47.814;11.134;2023-02-12T05:05:50;11.70;;;7.20;;
1811;SDS011;904;47.814;11.134;2023-02-12T05:08:20;10.00;;;6.68;;
1811;SDS011;904;47.814;11.134;2023-02-12T05:10:50;8.20;;;5.55;;
1811;SDS011;904;47.814;11.134;2023-02-12T05:13:18;9.15;;;6.60;;
1811;SDS011;904;47.814;11.134;2023-02-12T05:15:46;10.10;;;6.45;;
1811;SDS011;904;47.814;11.134;2023-02-12T05:18:18;9.55;;;5.70;;
1811;SDS011;904;47.814;11.134;2023-02-12T05:20:53;7.47;;;5.25;;
1811;SDS011;904;47.814;11.134;2023-02-12T05:23:37;11.23;;;5.10;;
1811;SDS011;904;47.814;11.134;2023-02-12T05:26:06;8.38;;;5.43;;
1811;SDS011;904;47.814;11.134;2023-02-12T05:28:36;9.77;;;4.82;;
1811;SDS011;904;47.814;11.134;2023-02-12T05:31:05;10.82;;;5.82;;
1811;SDS011;904;47.814;11.134;2023-02-12T05:33:34;9.48;;;5.57;;
1811;SDS011;904;47.814;11.134;2023-02-12T05:36:07;8.38;;;5.95;;
1811;SDS011;904;47.814;11.134;2023-02-12T05:38:43;12.65;;;5.90;;
1811;SDS011;904;47.814;11.134;2023-02-12T05:41:14;7.50;;;4.72;;
1811;SDS011;904;47.814;11.134;2023-02-12T05:43:51;9.52;;;5.93;;
1811;SDS011;904;47.814;11.134;2023-02-12T05:46:24;9.45;;;5.55;;
1811;SDS011;904;47.814;11.134;2023-02-12T05:48:55;10.32;;;6.00;;
1811;SDS011;904;47.814;11.134;2023-02-12T05:51:23;7.97;;;5.75;;
1811;SDS011;904;47.814;11.134;2023-02-12T05:53:55;7.63;;;5.20;;
1811;SDS011;904;47.814;11.134;2023-02-12T05:56:28;10.15;;;5.63;;
1811;SDS011;904;47.814;11.134;2023-02-12T05:58:57;9.00;;;5.68;;
1811;SDS011;904;47.814;11.134;2023-02-12T06:01:30;8.27;;;5.50;;
1811;SDS011;904;47.814;11.134;2023-02-12T06:04:04;8.98;;;5.93;;
1811;SDS011;904;47.814;11.134;2023-02-12T06:06:39;14.13;;;6.85;;
1811;SDS011;904;47.814;11.134;2023-02-12T06:09:12;9.85;;;5.85;;
1811;SDS011;904;47.814;11.134;2023-02-12T06:11:42;10.52;;;6.20;;
1811;SDS011;904;47.814;11.134;2023-02-12T06:14:12;12.35;;;7.65;;
1811;SDS011;904;47.814;11.134;2023-02-12T06:16:43;9.30;;;6.68;;
1811;SDS011;904;47.814;11.134;2023-02-12T06:19:14;16.15;;;9.10;;
1811;SDS011;904;47.814;11.134;2023-02-12T06:21:50;30.23;;;14.63;;
1811;SDS011;904;47.814;11.134;2023-02-12T06:24:20;58.78;;;26.95;;
1811;SDS011;904;47.814;11.134;2023-02-12T06:26:55;49.45;;;27.10;;
1811;SDS011;904;47.814;11.134;2023-02-12T06:29:23;61.17;;;31.70;;
1811;SDS011;904;47.814;11.134;2023-02-12T06:31:53;34.13;;;17.33;;
1811;SDS011;904;47.814;11.134;2023-02-12T06:34:23;29.35;;;16.35;;
1811;SDS011;904;47.814;11.134;2023-02-12T06:36:50;23.48;;;12.93;;
1811;SDS011;904;47.814;11.134;2023-02-12T06:39:24;17.85;;;11.15;;
1811;SDS011;904;47.814;11.134;2023-02-12T06:41:57;17.60;;;11.20;;
1811;SDS011;904;47.814;11.134;2023-02-12T06:44:26;19.65;;;12.07;;
1811;SDS011;904;47.814;11.134;2023-02-12T06:46:54;17.17;;;10.98;;
1811;SDS011;904;47.814;11.134;2023-02-12T06:49:24;17.25;;;12.20;;
1811;SDS011;904;47.814;11.134;2023-02-12T06:51:55;21.13;;;11.60;;
1811;SDS011;904;47.814;11.134;2023-02-12T06:54:29;20.00;;;12.35;;
1811;SDS011;904;47.814;11.134;2023-02-12T06:56:57;22.45;;;12.63;;
1811;SDS011;904;47.814;11.134;2023-02-12T06:59:27;23.35;;;11.95;;
1811;SDS011;904;47.814;11.134;2023-02-12T07:01:55;22.60;;;12.68;;
1811;SDS011;904;47.814;11.134;2023-02-12T07:04:29;18.98;;;9.68;;
1811;SDS011;904;47.814;11.134;2023-02-12T07:07:03;16.90;;;11.05;;
1811;SDS011;904;47.814;11.134;2023-02-12T07:09:34;18.25;;;9.93;;
1811;SDS011;904;47.814;11.134;2023-02-12T07:12:06;17.90;;;10.05;;
1811;SDS011;904;47.814;11.134;2023-02-12T07:14:34;13.80;;;8.90;;
1811;SDS011;904;47.814;11.134;2023-02-12T07:17:07;14.45;;;9.50;;
1811;SDS011;904;47.814;11.134;2023-02-12T07:19:36;16.45;;;9.95;;
1811;SDS011;904;47.814;11.134;2023-02-12T07:22:08;18.58;;;10.50;;
1811;SDS011;904;47.814;11.134;2023-02-12T07:24:38;23.75;;;14.15;;
1811;SDS011;904;47.814;11.134;2023-02-12T07:27:07;21.45;;;13.43;;
1811;SDS011;904;47.814;11.134;2023-02-12T07:29:37;16.02;;;10.45;;
1811;SDS011;904;47.814;11.134;2023-02-12T07:32:06;13.90;;;10.07;;
1811;SDS011;904;47.814;11.134;2023-02-12T07:34:34;18.33;;;11.07;;
1811;SDS011;904;47.814;11.134;2023-02-12T07:37:04;16.23;;;10.23;;
1811;SDS011;904;47.814;11.134;2023-02-12T07:39:34;16.08;;;10.38;;
1811;SDS011;904;47.814;11.134;2023-02-12T07:42:02;16.33;;;9.93;;
1811;SDS011;904;47.814;11.134;2023-02-12T07:44:30;13.73;;;9.43;;
1811;SDS011;904;47.814;11.134;2023-02-12T07:47:00;11.60;;;8.27;;
1811;SDS011;904;47.814;11.134;2023-02-12T07:49:32;12.30;;;8.60;;
1811;SDS011;904;47.814;11.134;2023-02-12T07:52:01;14.40;;;9.82;;
1811;SDS011;904;47.814;11.134;2023-02-12T07:54:29;13.38;;;8.63;;
1811;SDS011;904;47.814;11.134;2023-02-12T07:56:57;12.48;;;9.55;;
1811;SDS011;904;47.814;11.134;2023-02-12T07:59:26;13.75;;;9.07;;
1811;SDS011;904;47.814;11.134;2023-02-12T08:01:54;15.05;;;9.90;;
1811;SDS011;904;47.814;11.134;2023-02-12T08:04:23;14.35;;;12.13;;
1811;SDS011;904;47.814;11.134;2023-02-12T08:06:54;12.27;;;9.75;;
1811;SDS011;904;47.814;11.134;2023-02-12T08:09:24;17.67;;;10.80;;
1811;SDS011;904;47.814;11.134;2023-02-12T08:11:57;12.90;;;8.75;;
1811;SDS011;904;47.814;11.134;2023-02-12T08:14:26;12.95;;;8.23;;
1811;SDS011;904;47.814;11.134;2023-02-12T08:16:56;10.98;;;8.43;;
1811;SDS011;904;47.814;11.134;2023-02-12T08:19:23;9.73;;;7.47;;
1811;SDS011;904;47.814;11.134;2023-02-12T08:21:52;11.25;;;7.05;;
1811;SDS011;904;47.814;11.134;2023-02-12T08:24:21;11.75;;;7.82;;
1811;SDS011;904;47.814;11.134;2023-02-12T08:26:56;8.55;;;5.85;;
1811;SDS011;904;47.814;11.134;2023-02-12T08:29:26;10.05;;;7.18;;
1811;SDS011;904;47.814;11.134;2023-02-12T08:31:55;13.30;;;8.75;;
1811;SDS011;904;47.814;11.134;2023-02-12T08:34:25;10.95;;;6.43;;
1811;SDS011;904;47.814;11.134;2023-02-12T08:36:54;9.32;;;6.20;;
1811;SDS011;904;47.814;11.134;2023-02-12T08:39:23;10.55;;;6.90;;
1811;SDS011;904;47.814;11.134;2023-02-12T08:41:52;9.63;;;6.55;;
1811;SDS011;904;47.814;11.134;2023-02-12T08:44:21;7.43;;;5.28;;
1811;SDS011;904;47.814;11.134;2023-02-12T08:46:50;6.18;;;4.85;;
1811;SDS011;904;47.814;11.134;2023-02-12T08:49:20;7.85;;;5.70;;
1811;SDS011;904;47.814;11.134;2023-02-12T08:51:49;6.65;;;5.38;;
1811;SDS011;904;47.814;11.134;2023-02-12T08:54:19;9.00;;;6.28;;
1811;SDS011;904;47.814;11.134;2023-02-12T08:56:53;15.82;;;8.23;;
1811;SDS011;904;47.814;11.134;2023-02-12T08:59:21;14.35;;;8.65;;
1811;SDS011;904;47.814;11.134;2023-02-12T09:01:53;8.40;;;5.95;;
1811;SDS011;904;47.814;11.134;2023-02-12T09:04:21;10.52;;;7.60;;
1811;SDS011;904;47.814;11.134;2023-02-12T09:06:55;8.43;;;6.90;;
1811;SDS011;904;47.814;11.134;2023-02-12T09:09:23;10.18;;;7.28;;
1811;SDS011;904;47.814;11.134;2023-02-12T09:11:50;15.40;;;7.40;;
1811;SDS011;904;47.814;11.134;2023-02-12T09:14:20;9.07;;;6.53;;
1811;SDS011;904;47.814;11.134;2023-02-12T09:16:48;8.37;;;6.40;;
1811;SDS011;904;47.814;11.134;2023-02-12T09:19:19;8.23;;;7.40;;
1811;SDS011;904;47.814;11.134;2023-02-12T09:21:51;8.97;;;7.43;;
1811;SDS011;904;47.814;11.134;2023-02-12T09:24:19;9.97;;;6.73;;
1811;SDS011;904;47.814;11.134;2023-02-12T09:26:46;11.03;;;7.73;;
1811;SDS011;904;47.814;11.134;2023-02-12T09:29:20;11.10;;;7.33;;
1811;SDS011;904;47.814;11.134;2023-02-12T09:31:47;8.70;;;6.37;;
1811;SDS011;904;47.814;11.134;2023-02-12T09:34:15;12.13;;;8.40;;
1811;SDS011;904;47.814;11.134;2023-02-12T09:36:44;11.30;;;8.53;;
1811;SDS011;904;47.814;11.134;2023-02-12T09:39:12;13.37;;;7.00;;
1811;SDS011;904;47.814;11.134;2023-02-12T09:41:43;13.40;;;8.23;;
1811;SDS011;904;47.814;11.134;2023-02-12T09:44:31;12.30;;;7.70;;
1811;SDS011;904;47.814;11.134;2023-02-12T09:47:11;9.37;;;8.20;;
1811;SDS011;904;47.814;11.134;2023-02-12T09:49:46;12.17;;;10.17;;
1811;SDS011;904;47.814;11.134;2023-02-12T09:52:27;11.77;;;9.17;;
1811;SDS011;904;47.814;11.134;2023-02-12T09:54:56;9.87;;;8.10;;
1811;SDS011;904;47.814;11.134;2023-02-12T09:57:33;12.73;;;9.90;;
1811;SDS011;904;47.814;11.134;2023-02-12T10:00:03;10.90;;;9.47;;
1811;SDS011;904;47.814;11.134;2023-02-12T10:02:38;8.93;;;7.93;;
1811;SDS011;904;47.814;11.134;2023-02-12T10:05:10;12.70;;;8.40;;
1811;SDS011;904;47.814;11.134;2023-02-12T10:07:52;11.53;;;7.90;;
1811;SDS011;904;47.814;11.134;2023-02-12T10:10:34;11.30;;;8.23;;
1811;SDS011;904;47.814;11.134;2023-02-12T10:13:16;17.57;;;8.90;;
1811;SDS011;904;47.814;11.134;2023-02-12T10:15:53;13.23;;;9.80;;
1811;SDS011;904;47.814;11.134;2023-02-12T10:18:39;10.77;;;8.53;;
1811;SDS011;904;47.814;11.134;2023-02-12T10:21:19;11.60;;;9.17;;
1811;SDS011;904;47.814;11.134;2023-02-12T10:23:59;11.30;;;8.43;;
1811;SDS011;904;47.814;11.134;2023-02-12T10:26:41;12.40;;;9.10;;
1811;SDS011;904;47.814;11.134;2023-02-12T10:29:12;12.73;;;8.90;;
1811;SDS011;904;47.814;11.134;2023-02-12T10:31:43;10.43;;;7.70;;
1811;SDS011;904;47.814;11.134;2023-02-12T10:34:14;9.60;;;7.37;;
1811;SDS011;904;47.814;11.134;2023-02-12T10:36:44;10.37;;;7.30;;
1811;SDS011;904;47.814;11.134;2023-02-12T10:39:16;11.03;;;7.20;;
1811;SDS011;904;47.814;11.134;2023-02-12T10:41:48;9.30;;;7.37;;
1811;SDS011;904;47.814;11.134;2023-02-12T10:44:20;9.80;;;6.97;;
1811;SDS011;904;47.814;11.134;2023-02-12T10:46:49;11.20;;;6.60;;
1811;SDS011;904;47.814;11.134;2023-02-12T10:49:17;8.80;;;7.70;;
1811;SDS011;904;47.814;11.134;2023-02-12T10:52:06;9.87;;;8.10;;
1811;SDS011;904;47.814;11.134;2023-02-12T10:54:42;9.83;;;7.53;;
1811;SDS011;904;47.814;11.134;2023-02-12T10:57:11;8.13;;;5.70;;
1811;SDS011;904;47.814;11.134;2023-02-12T10:59:41;10.10;;;6.80;;
1811;SDS011;904;47.814;11.134;2023-02-12T11:02:25;12.03;;;6.83;;
1811;SDS011;904;47.814;11.134;2023-02-12T11:04:54;10.53;;;7.20;;
1811;SDS011;904;47.814;11.134;2023-02-12T11:07:29;10.00;;;7.70;;
1811;SDS011;904;47.814;11.134;2023-02-12T11:10:24;7.90;;;5.83;;
1811;SDS011;904;47.814;11.134;2023-02-12T11:12:55;8.47;;;6.27;;
1811;SDS011;904;47.814;11.134;2023-02-12T11:15:24;9.43;;;6.73;;
1811;SDS011;904;47.814;11.134;2023-02-12T11:17:58;8.47;;;5.70;;
1811;SDS011;904;47.814;11.134;2023-02-12T11:20:27;8.50;;;6.20;;
1811;SDS011;904;47.814;11.134;2023-02-12T11:22:58;10.73;;;7.07;;
1811;SDS011;904;47.814;11.134;2023-02-12T11:25:29;10.83;;;7.43;;
1811;SDS011;904;47.814;11.134;2023-02-12T11:27:59;10.97;;;7.63;;
1811;SDS011;904;47.814;11.134;2023-02-12T11:30:32;10.53;;;7.67;;
1811;SDS011;904;47.814;11.134;2023-02-12T11:33:15;10.20;;;8.23;;
1811;SDS011;904;47.814;11.134;2023-02-12T11:35:52;8.17;;;6.07;;
1811;SDS011;904;47.814;11.134;2023-02-12T11:38:23;8.60;;;6.10;;
1811;SDS011;904;47.814;11.134;2023-02-12T11:40:55;8.77;;;6.10;;
1811;SDS011;904;47.814;11.134;2023-02-12T11:43:24;10.93;;;7.23;;
1811;SDS011;904;47.814;11.134;2023-02-12T11:45:55;10.23;;;7.37;;
1811;SDS011;904;47.814;11.134;2023-02-12T11:48:23;9.23;;;6.80;;
1811;SDS011;904;47.814;11.134;2023-02-12T11:50:53;8.37;;;6.23;;
1811;SDS011;904;47.814;11.134;2023-02-12T11:53:29;9.33;;;7.20;;
1811;SDS011;904;47.814;11.134;2023-02-12T11:56:00;10.07;;;7.13;;
1811;SDS011;904;47.814;11.134;2023-02-12T11:58:29;9.93;;;6.80;;
1811;SDS011;904;47.814;11.134;2023-02-12T12:01:03;9.27;;;7.50;;
1811;SDS011;904;47.814;11.134;2023-02-12T12:03:38;11.33;;;7.53;;
1811;SDS011;904;47.814;11.134;2023-02-12T12:06:17;13.70;;;8.30;;
1811;SDS011;904;47.814;11.134;2023-02-12T12:08:55;9.60;;;7.10;;
1811;SDS011;904;47.814;11.134;2023-02-12T12:11:43;8.07;;;6.67;;
1811;SDS011;904;47.814;11.134;2023-02-12T12:14:22;7.13;;;5.80;;
1811;SDS011;904;47.814;11.134;2023-02-12T12:16:57;7.70;;;5.70;;
1811;SDS011;904;47.814;11.134;2023-02-12T12:19:47;8.23;;;6.20;;
1811;SDS011;904;47.814;11.134;2023-02-12T12:22:35;7.90;;;5.63;;
1811;SDS011;904;47.814;11.134;2023-02-12T12:25:15;8.43;;;6.60;;
1811;SDS011;904;47.814;11.134;2023-02-12T12:27:53;7.80;;;5.03;;
1811;SDS011;904;47.814;11.134;2023-02-12T12:30:48;8.20;;;6.27;;
1811;SDS011;904;47.814;11.134;2023-02-12T12:33:24;7.30;;;5.70;;
1811;SDS011;904;47.814;11.134;2023-02-12T12:39:02;9.67;;;5.70;;
1811;SDS011;904;47.814;11.134;2023-02-12T12:41:40;7.53;;;5.30;;
1811;SDS011;904;47.814;11.134;2023-02-12T12:44:24;6.23;;;4.70;;
1811;SDS011;904;47.814;11.134;2023-02-12T12:47:04;6.60;;;5.00;;
1811;SDS011;904;47.814;11.134;2023-02-12T12:52:39;7.27;;;4.77;;
1811;SDS011;904;47.814;11.134;2023-02-12T12:55:19;6.17;;;4.83;;
1811;SDS011;904;47.814;11.134;2023-02-12T12:58:02;6.00;;;4.30;;
1811;SDS011;904;47.814;11.134;2023-02-12T13:00:47;5.60;;;4.13;;
1811;SDS011;904;47.814;11.134;2023-02-12T13:03:50;5.90;;;4.30;;
1811;SDS011;904;47.814;11.134;2023-02-12T13:06:35;6.27;;;4.83;;
1811;SDS011;904;47.814;11.134;2023-02-12T13:09:22;7.17;;;5.70;;
1811;SDS011;904;47.814;11.134;2023-02-12T13:12:16;7.97;;;5.73;;
1811;SDS011;904;47.814;11.134;2023-02-12T13:15:02;7.50;;;5.53;;
1811;SDS011;904;47.814;11.134;2023-02-12T13:17:41;8.03;;;5.00;;
1811;SDS011;904;47.814;11.134;2023-02-12T13:20:13;7.40;;;5.03;;
1811;SDS011;904;47.814;11.134;2023-02-12T13:22:49;9.47;;;5.43;;
1811;SDS011;904;47.814;11.134;2023-02-12T13:25:26;6.57;;;4.90;;
1811;SDS011;904;47.814;11.134;2023-02-12T13:27:57;6.70;;;5.13;;
1811;SDS011;904;47.814;11.134;2023-02-12T13:30:27;7.07;;;5.10;;
1811;SDS011;904;47.814;11.134;2023-02-12T13:33:04;7.37;;;5.17;;
1811;SDS011;904;47.814;11.134;2023-02-12T13:35:36;6.80;;;5.87;;
1811;SDS011;904;47.814;11.134;2023-02-12T13:38:07;6.80;;;4.60;;
1811;SDS011;904;47.814;11.134;2023-02-12T13:40:40;7.07;;;4.63;;
1811;SDS011;904;47.814;11.134;2023-02-12T13:43:10;7.33;;;4.47;;
1811;SDS011;904;47.814;11.134;2023-02-12T13:45:47;8.70;;;5.90;;
1811;SDS011;904;47.814;11.134;2023-02-12T13:48:26;7.77;;;4.80;;
1811;SDS011;904;47.814;11.134;2023-02-12T13:51:05;6.90;;;4.97;;
1811;SDS011;904;47.814;11.134;2023-02-12T13:53:44;7.20;;;5.37;;
1811;SDS011;904;47.814;11.134;2023-02-12T13:56:24;9.17;;;5.80;;
1811;SDS011;904;47.814;11.134;2023-02-12T13:59:07;7.67;;;6.20;;
1811;SDS011;904;47.814;11.134;2023-02-12T14:02:27;8.60;;;6.73;;
1811;SDS011;904;47.814;11.134;2023-02-12T14:05:25;8.90;;;5.70;;
1811;SDS011;904;47.814;11.134;2023-02-12T14:07:57;9.20;;;6.10;;
1811;SDS011;904;47.814;11.134;2023-02-12T14:10:31;8.63;;;6.93;;
1811;SDS011;904;47.814;11.134;2023-02-12T14:13:11;8.13;;;5.87;;
1811;SDS011;904;47.814;11.134;2023-02-12T14:15:44;7.17;;;5.30;;
1811;SDS011;904;47.814;11.134;2023-02-12T14:18:28;7.70;;;5.13;;
1811;SDS011;904;47.814;11.134;2023-02-12T14:27:21;6.10;;;4.57;;
1811;SDS011;904;47.814;11.134;2023-02-12T14:29:59;4.80;;;3.93;;
1811;SDS011;904;47.814;11.134;2023-02-12T14:35:39;6.13;;;3.90;;
1811;SDS011;904;47.814;11.134;2023-02-12T14:41:23;5.60;;;4.90;;
1811;SDS011;904;47.814;11.134;2023-02-12T14:47:03;9.40;;;7.80;;
1811;SDS011;904;47.814;11.134;2023-02-12T14:49:38;8.63;;;6.80;;
1811;SDS011;904;47.814;11.134;2023-02-12T14:52:15;6.87;;;5.23;;
1811;SDS011;904;47.814;11.134;2023-02-12T14:54:48;5.87;;;5.10;;
1811;SDS011;904;47.814;11.134;2023-02-12T14:57:21;6.97;;;5.40;;
1811;SDS011;904;47.814;11.134;2023-02-12T14:59:51;6.70;;;5.47;;
1811;SDS011;904;47.814;11.134;2023-02-12T15:02:23;7.33;;;5.10;;
1811;SDS011;904;47.814;11.134;2023-02-12T15:04:57;6.23;;;4.53;;
1811;SDS011;904;47.814;11.134;2023-02-12T15:07:30;7.07;;;4.50;;
1811;SDS011;904;47.814;11.134;2023-02-12T15:10:03;7.23;;;4.90;;
1811;SDS011;904;47.814;11.134;2023-02-12T15:12:36;5.83;;;4.67;;
1811;SDS011;904;47.814;11.134;2023-02-12T15:15:10;21.10;;;9.43;;
1811;SDS011;904;47.814;11.134;2023-02-12T15:17:41;10.13;;;8.63;;
1811;SDS011;904;47.814;11.134;2023-02-12T15:20:18;6.23;;;5.03;;
1811;SDS011;904;47.814;11.134;2023-02-12T15:22:49;10.37;;;6.83;;
1811;SDS011;904;47.814;11.134;2023-02-12T15:25:20;6.87;;;5.50;;
1811;SDS011;904;47.814;11.134;2023-02-12T15:27:49;6.03;;;4.77;;
1811;SDS011;904;47.814;11.134;2023-02-12T15:30:21;6.40;;;4.90;;
1811;SDS011;904;47.814;11.134;2023-02-12T15:32:50;7.80;;;5.43;;
1811;SDS011;904;47.814;11.134;2023-02-12T15:35:19;9.43;;;4.75;;
1811;SDS011;904;47.814;11.134;2023-02-12T15:37:51;7.00;;;5.25;;
1811;SDS011;904;47.814;11.134;2023-02-12T15:40:19;8.40;;;5.17;;
1811;SDS011;904;47.814;11.134;2023-02-12T15:42:51;6.83;;;5.03;;
1811;SDS011;904;47.814;11.134;2023-02-12T15:45:21;7.75;;;5.35;;
1811;SDS011;904;47.814;11.134;2023-02-12T15:48:00;8.55;;;6.05;;
1811;SDS011;904;47.814;11.134;2023-02-12T15:50:35;7.47;;;6.43;;
1811;SDS011;904;47.814;11.134;2023-02-12T15:53:12;8.68;;;5.50;;
1811;SDS011;904;47.814;11.134;2023-02-12T15:55:40;11.30;;;6.30;;
1811;SDS011;904;47.814;11.134;2023-02-12T15:58:17;7.78;;;6.30;;
1811;SDS011;904;47.814;11.134;2023-02-12T16:00:47;8.90;;;4.97;;
1811;SDS011;904;47.814;11.134;2023-02-12T16:03:22;7.28;;;5.70;;
1811;SDS011;904;47.814;11.134;2023-02-12T16:05:51;9.40;;;6.95;;
1811;SDS011;904;47.814;11.134;2023-02-12T16:08:22;7.72;;;5.72;;
1811;SDS011;904;47.814;11.134;2023-02-12T16:10:51;6.90;;;4.40;;